Time;durP1;ratioP1;P1;durP2;ratioP2;P2;SDS_P1;SDS_P2;PMS_P1;PMS_P2;Temp;Humidity;BMP_temperature;BMP_pressure;BME280_temperature;BME280_humidity;BME280_pressure;Samples;Min_cycle;Max_cycle;Signal;HPM_P1;HPM_P2
2021/05/08 00:02:23;;;;;;;12.05;9.40;;;;;;;8.77;82.47;93857.25;1860789;77;21505;-52
2021/05/08 00:04:53;;;;;;;11.18;8.70;;;;;;;8.82;81.98;93874.45;1868237;76;21551;-51
2021/05/08 00:07:21;;;;;;;14.35;8.88;;;;;;;8.77;81.83;93868.22;1808788;79;21518;-51
2021/05/08 00:09:50;;;;;;;12.55;10.38;;;;;;;8.75;81.60;93867.13;1822773;78;21151;-52
2021/05/08 00:12:18;;;;;;;19.87;14.93;;;;;;;8.73;81.58;93866.83;1810140;79;21135;-52
2021/05/08 00:14:48;;;;;;;20.55;13.50;;;;;;;8.69;81.62;93858.00;1822742;78;21135;-50
2021/05/08 00:17:16;;;;;;;12.93;11.15;;;;;;;8.67;81.87;93859.07;1822535;78;21167;-51
2021/05/08 00:19:44;;;;;;;10.63;9.23;;;;;;;8.65;81.84;93857.40;1822302;78;21612;-51
2021/05/08 00:22:12;;;;;;;8.90;8.00;;;;;;;8.62;81.86;93861.80;1809546;79;21064;-50
2021/05/08 00:24:40;;;;;;;8.45;6.53;;;;;;;8.65;81.95;93847.80;1822202;78;21068;-51
2021/05/08 00:27:08;;;;;;;7.20;6.50;;;;;;;8.70;81.83;93867.75;1809496;79;21197;-50
2021/05/08 00:29:36;;;;;;;9.70;6.37;;;;;;;8.67;81.68;93858.47;1822144;78;21115;-52
2021/05/08 00:32:05;;;;;;;5.62;5.12;;;;;;;8.65;81.86;93860.89;1809497;79;21087;-51
2021/05/08 00:34:33;;;;;;;5.78;5.25;;;;;;;8.69;82.17;93864.26;1822204;78;21071;-50
2021/05/08 00:37:01;;;;;;;7.22;5.45;;;;;;;8.77;82.08;93871.58;1809604;79;21064;-50
2021/05/08 00:39:29;;;;;;;6.17;5.47;;;;;;;8.85;81.83;93872.20;1822158;78;21401;-51
2021/05/08 00:41:57;;;;;;;6.95;6.08;;;;;;;8.93;81.53;93864.58;1809438;79;21154;-51
2021/05/08 00:44:26;;;;;;;6.65;6.00;;;;;;;8.92;81.23;93863.66;1822050;78;21170;-50
2021/05/08 00:46:54;;;;;;;6.50;5.87;;;;;;;8.88;81.28;93865.02;1809515;79;21131;-51
2021/05/08 00:49:25;;;;;;;7.50;6.42;;;;;;;8.84;81.35;93870.64;1822346;78;21496;-51
2021/05/08 00:51:52;;;;;;;6.83;5.90;;;;;;;8.77;81.59;93865.47;1822226;78;21296;-51
2021/05/08 00:54:20;;;;;;;7.33;5.67;;;;;;;8.77;81.88;93876.44;1809508;79;21147;-52
2021/05/08 00:56:48;;;;;;;7.90;6.00;;;;;;;8.85;81.81;93885.91;1821993;78;21187;-52
2021/05/08 00:59:18;;;;;;;6.53;5.83;;;;;;;8.87;81.45;93892.29;1809097;79;21191;-50
2021/05/08 01:01:46;;;;;;;9.58;6.10;;;;;;;8.81;81.56;93894.87;1822191;78;21146;-51
2021/05/08 01:04:15;;;;;;;6.75;5.62;;;;;;;8.71;81.45;93900.20;1809492;79;21324;-49
2021/05/08 01:06:43;;;;;;;7.17;5.12;;;;;;;8.66;81.95;93904.91;1820236;78;21120;-52
2021/05/08 01:09:12;;;;;;;6.03;5.45;;;;;;;8.71;81.79;93907.06;1806399;79;21056;-50
2021/05/08 01:11:40;;;;;;;7.30;6.60;;;;;;;8.73;82.00;93908.73;1822039;78;21477;-50
2021/05/08 01:14:08;;;;;;;7.37;6.20;;;;;;;8.72;82.06;93901.73;1806443;79;21124;-51
2021/05/08 01:16:36;;;;;;;5.85;5.00;;;;;;;8.71;82.27;93904.32;1822140;78;21297;-51
2021/05/08 01:19:05;;;;;;;5.78;5.17;;;;;;;8.69;82.27;93898.53;1822071;78;21154;-51
2021/05/08 01:21:35;;;;;;;5.37;4.83;;;;;;;8.69;82.40;93907.36;1806389;79;21061;-51
2021/05/08 01:24:05;;;;;;;5.87;4.50;;;;;;;8.71;82.45;93926.85;1822044;78;21076;-51
2021/05/08 01:26:33;;;;;;;3.62;3.27;;;;;;;8.71;82.26;93930.37;1806372;79;21043;-50
2021/05/08 01:29:02;;;;;;;2.98;2.80;;;;;;;8.61;79.85;93947.25;1792716;78;21391;-51
2021/05/08 01:31:31;;;;;;;2.55;2.35;;;;;;;8.45;78.82;93949.63;1806329;79;21080;-51
2021/05/08 01:34:00;;;;;;;5.42;2.50;;;;;;;8.30;77.21;93947.33;1822134;78;21131;-52
2021/05/08 01:36:28;;;;;;;2.20;2.10;;;;;;;8.17;76.88;93965.80;1792128;78;21130;-51
2021/05/08 01:38:56;;;;;;;2.20;2.10;;;;;;;8.06;75.73;93975.02;1806389;79;21182;-51
2021/05/08 01:41:25;;;;;;;2.50;2.30;;;;;;;7.90;75.55;93989.55;1822141;78;21431;-50
2021/05/08 01:43:53;;;;;;;2.77;2.50;;;;;;;7.69;75.37;93997.94;1806341;79;21079;-50
2021/05/08 01:46:21;;;;;;;2.52;2.40;;;;;;;7.53;75.60;94003.59;1822105;78;21092;-51
2021/05/08 01:48:50;;;;;;;2.33;2.22;;;;;;;7.36;75.98;94013.20;1806363;79;21099;-51
2021/05/08 01:51:19;;;;;;;2.37;2.27;;;;;;;7.25;76.28;94021.02;1822097;78;21178;-50
2021/05/08 01:53:47;;;;;;;2.40;2.30;;;;;;;7.17;75.79;94041.60;1806340;79;21193;-51
2021/05/08 01:56:15;;;;;;;2.52;2.42;;;;;;;7.04;75.87;94046.95;1822090;78;21067;-52
2021/05/08 01:58:46;;;;;;;2.40;2.30;;;;;;;6.98;76.17;94062.98;1805553;79;21139;-50
2021/05/08 02:01:13;;;;;;;2.47;2.37;;;;;;;6.97;76.13;94078.64;1822016;78;21158;-50
2021/05/08 02:03:43;;;;;;;2.20;2.10;;;;;;;6.93;75.78;94071.16;1806384;78;21072;-50
2021/05/08 02:06:12;;;;;;;2.33;2.22;;;;;;;6.90;75.83;94074.00;1791876;78;21269;-50
2021/05/08 02:08:42;;;;;;;2.70;2.50;;;;;;;6.89;75.84;94061.53;1805305;79;21064;-53
2021/05/08 02:11:12;;;;;;;2.30;2.20;;;;;;;6.88;76.17;94072.30;1822008;78;21492;-51
2021/05/08 02:13:41;;;;;;;3.02;2.37;;;;;;;6.83;76.03;94072.25;1822064;78;21067;-50
2021/05/08 02:16:10;;;;;;;2.40;2.30;;;;;;;6.79;76.04;94074.92;1822024;78;21083;-51
2021/05/08 02:18:38;;;;;;;2.42;2.33;;;;;;;6.70;75.67;94074.84;1821890;78;21191;-52
2021/05/08 02:21:07;;;;;;;2.45;2.30;;;;;;;6.61;74.92;94079.59;1822001;78;21163;-52
2021/05/08 02:23:35;;;;;;;2.27;2.17;;;;;;;6.55;75.53;94091.50;1822040;78;21250;-51
2021/05/08 02:26:03;;;;;;;2.27;2.17;;;;;;;6.51;75.25;94094.95;1821969;78;21056;-51
2021/05/08 02:28:32;;;;;;;2.62;2.52;;;;;;;6.47;74.96;94103.25;1806134;79;21053;-52
2021/05/08 02:31:00;;;;;;;2.40;2.30;;;;;;;6.40;75.16;94114.98;1822075;78;21135;-51
2021/05/08 02:33:30;;;;;;;2.40;2.30;;;;;;;6.32;75.47;94106.84;1806263;79;21155;-50
2021/05/08 02:35:58;;;;;;;2.42;2.33;;;;;;;6.36;75.65;94108.87;1822069;78;21134;-50
2021/05/08 02:38:26;;;;;;;2.77;2.67;;;;;;;6.34;75.91;94105.81;1822050;78;21199;-50
2021/05/08 02:40:55;;;;;;;3.80;2.50;;;;;;;6.30;75.80;94118.81;1806362;79;21052;-50
2021/05/08 02:43:26;;;;;;;2.50;2.40;;;;;;;6.24;75.76;94128.72;1822036;78;21119;-50
2021/05/08 02:45:56;;;;;;;2.40;2.30;;;;;;;6.23;75.82;94142.21;1805628;79;21210;-51
2021/05/08 02:48:24;;;;;;;2.47;2.30;;;;;;;6.21;75.52;94137.78;1822020;78;21076;-49
2021/05/08 02:50:54;;;;;;;2.55;2.40;;;;;;;6.18;75.21;94138.66;1806426;79;21064;-50
2021/05/08 02:53:22;;;;;;;2.77;2.67;;;;;;;6.08;75.37;94150.62;1822071;78;21043;-50
2021/05/08 02:55:50;;;;;;;3.15;2.95;;;;;;;6.07;75.56;94151.25;1821959;78;21367;-51
2021/05/08 02:58:20;;;;;;;2.80;2.60;;;;;;;6.11;75.26;94157.95;1805950;79;21119;-51
2021/05/08 03:00:48;;;;;;;2.62;2.52;;;;;;;6.04;75.11;94162.25;1822046;78;21116;-51
2021/05/08 03:03:16;;;;;;;3.77;3.58;;;;;;;5.92;75.51;94175.25;1806287;79;21194;-50
2021/05/08 03:05:46;;;;;;;3.15;2.95;;;;;;;5.81;75.96;94178.27;1822013;78;21143;-50
2021/05/08 03:08:19;;;;;;;3.37;3.17;;;;;;;5.83;76.44;94187.40;1806257;78;21205;-51
2021/05/08 03:10:48;;;;;;;3.22;3.05;;;;;;;5.82;76.56;94182.52;1821600;78;21142;-51
2021/05/08 03:13:17;;;;;;;3.33;3.12;;;;;;;5.75;76.97;94167.69;1806292;79;21116;-50
2021/05/08 03:15:45;;;;;;;2.90;2.70;;;;;;;5.67;76.91;94168.30;1822036;78;21079;-51
2021/05/08 03:18:14;;;;;;;3.08;2.87;;;;;;;5.63;76.89;94162.17;1806325;79;21052;-50
2021/05/08 03:20:42;;;;;;;3.10;2.90;;;;;;;5.64;76.96;94171.28;1821960;78;21252;-51
2021/05/08 03:23:11;;;;;;;3.20;3.00;;;;;;;5.59;77.11;94177.87;1821963;78;21063;-50
2021/05/08 03:25:39;;;;;;;6.85;6.35;;;;;;;5.60;77.16;94187.59;1806358;79;21107;-51
2021/05/08 03:28:09;;;;;;;6.60;4.90;;;;;;;5.57;77.42;94200.73;1822029;78;21131;-51
2021/05/08 03:30:38;;;;;;;26.70;16.10;;;;;;;5.59;77.82;94196.97;1806329;79;21104;-50
2021/05/08 03:33:07;;;;;;;23.80;14.28;;;;;;;5.66;77.95;94211.78;1822101;78;22312;-52
2021/05/08 03:35:36;;;;;;;6.35;4.90;;;;;;;5.70;78.08;94211.09;1806258;79;21170;-50
2021/05/08 03:38:04;;;;;;;3.25;3.00;;;;;;;5.76;78.54;94211.52;1822006;78;21064;-52
2021/05/08 03:40:32;;;;;;;2.90;2.70;;;;;;;5.82;78.62;94210.43;1806289;79;21069;-51
2021/05/08 03:43:00;;;;;;;2.80;2.70;;;;;;;5.88;78.89;94211.43;1822045;78;21135;-51
2021/05/08 03:45:28;;;;;;;2.83;2.70;;;;;;;5.91;78.91;94222.85;1806315;79;21312;-50
2021/05/08 03:47:56;;;;;;;2.95;2.80;;;;;;;5.95;79.01;94224.91;1821844;78;21167;-50
2021/05/08 03:50:25;;;;;;;3.12;2.95;;;;;;;6.01;78.87;94227.28;1806269;79;21088;-51
2021/05/08 03:52:52;;;;;;;4.87;4.03;;;;;;;6.08;78.80;94225.72;1822050;78;21078;-51
2021/05/08 03:55:21;;;;;;;3.92;3.60;;;;;;;6.14;78.82;94226.13;1806477;79;21172;-51
2021/05/08 03:57:49;;;;;;;4.03;3.60;;;;;;;6.20;78.76;94231.84;1821889;78;21150;-52
2021/05/08 04:00:18;;;;;;;3.72;3.42;;;;;;;6.22;78.76;94232.16;1806232;79;21167;-52
2021/05/08 04:02:46;;;;;;;3.50;3.20;;;;;;;6.24;79.06;94243.42;1822129;78;21071;-50
2021/05/08 04:05:14;;;;;;;3.52;3.33;;;;;;;6.23;78.73;94244.63;1806353;79;21044;-50
2021/05/08 04:07:42;;;;;;;3.87;3.58;;;;;;;6.17;78.60;94248.47;1822076;78;21104;-50
2021/05/08 04:10:11;;;;;;;3.40;3.20;;;;;;;6.16;78.91;94257.11;1822149;78;21192;-50
2021/05/08 04:12:39;;;;;;;3.30;3.10;;;;;;;6.18;78.72;94260.18;1806309;79;21575;-51
2021/05/08 04:15:09;;;;;;;3.30;3.10;;;;;;;6.12;78.62;94255.08;1792239;78;21183;-51
2021/05/08 04:17:37;;;;;;;4.15;3.25;;;;;;;6.06;78.35;94260.29;1806414;79;21116;-51
2021/05/08 04:20:07;;;;;;;3.60;3.40;;;;;;;5.99;78.23;94259.70;1822292;78;21468;-50
2021/05/08 04:22:34;;;;;;;4.08;3.67;;;;;;;5.98;78.15;94256.20;1822255;78;22162;-50
2021/05/08 04:25:03;;;;;;;4.20;3.90;;;;;;;5.99;78.00;94258.34;1822090;78;21059;-50
2021/05/08 04:27:32;;;;;;;5.20;4.70;;;;;;;6.01;78.01;94255.95;1821822;78;21213;-50
2021/05/08 04:30:00;;;;;;;6.47;4.62;;;;;;;6.03;78.06;94254.91;1822159;78;21159;-51
2021/05/08 04:32:28;;;;;;;6.62;5.70;;;;;;;6.02;77.99;94258.84;1806522;79;21147;-51
2021/05/08 04:34:56;;;;;;;8.43;6.58;;;;;;;6.01;78.02;94267.62;1822146;78;21427;-50
2021/05/08 04:37:23;;;;;;;7.75;6.65;;;;;;;5.98;77.97;94266.36;1806289;79;21072;-51
2021/05/08 04:39:53;;;;;;;7.85;6.28;;;;;;;5.96;77.98;94269.51;1822026;78;21051;-52
2021/05/08 04:42:21;;;;;;;7.67;6.87;;;;;;;5.98;78.08;94273.19;1822143;78;21492;-52
2021/05/08 04:44:49;;;;;;;4.75;4.37;;;;;;;6.08;78.19;94281.69;1822166;78;21119;-51
2021/05/08 04:47:20;;;;;;;5.03;4.50;;;;;;;6.16;78.34;94273.50;1806353;79;22045;-52
2021/05/08 04:49:51;;;;;;;7.72;5.80;;;;;;;6.19;78.01;94272.63;1822069;78;21116;-52
2021/05/08 04:52:18;;;;;;;3.77;3.47;;;;;;;6.24;77.79;94280.30;1822156;78;21572;-51
2021/05/08 04:54:46;;;;;;;3.10;2.90;;;;;;;6.32;77.29;94285.75;1806372;79;21234;-50
2021/05/08 04:57:15;;;;;;;6.95;5.65;;;;;;;6.32;77.04;94291.22;1822006;78;21123;-51
2021/05/08 04:59:42;;;;;;;2.62;2.52;;;;;;;6.32;76.63;94298.05;1806077;79;21207;-51
2021/05/08 05:02:10;;;;;;;2.67;2.58;;;;;;;6.32;76.22;94298.05;1822060;78;21163;-52
2021/05/08 05:04:38;;;;;;;3.17;2.90;;;;;;;6.35;76.32;94306.73;1822128;78;21119;-51
2021/05/08 05:07:06;;;;;;;3.10;2.90;;;;;;;6.36;75.89;94308.27;1792452;78;21193;-50
2021/05/08 05:09:34;;;;;;;3.87;3.50;;;;;;;6.33;76.03;94307.16;1808902;79;21465;-50
2021/05/08 05:12:03;;;;;;;3.40;3.12;;;;;;;6.39;76.08;94312.88;1821925;78;21259;-51
2021/05/08 05:14:31;;;;;;;3.40;3.20;;;;;;;6.52;76.24;94313.70;1809384;79;21111;-53
2021/05/08 05:16:59;;;;;;;3.67;3.37;;;;;;;6.62;76.55;94315.36;1822102;78;21127;-51
2021/05/08 05:19:28;;;;;;;3.30;3.10;;;;;;;6.71;77.00;94317.63;1809386;79;21151;-54
2021/05/08 05:21:56;;;;;;;4.67;3.50;;;;;;;6.87;76.76;94321.67;1822129;78;21618;-52
2021/05/08 05:24:25;;;;;;;3.45;3.25;;;;;;;7.05;76.35;94319.83;1809484;79;21375;-52
2021/05/08 05:26:53;;;;;;;3.62;3.33;;;;;;;7.18;75.54;94311.80;1821928;78;21496;-51
2021/05/08 05:29:21;;;;;;;3.10;2.92;;;;;;;7.18;74.91;94318.02;1809423;79;21057;-51
2021/05/08 05:31:51;;;;;;;2.87;2.77;;;;;;;7.16;74.12;94316.94;1822038;78;21582;-52
2021/05/08 05:34:21;;;;;;;2.77;2.60;;;;;;;7.14;73.61;94313.88;1822190;78;21572;-52
2021/05/08 05:36:51;;;;;;;2.92;2.70;;;;;;;7.19;73.43;94312.72;1809565;79;22286;-51
2021/05/08 05:39:18;;;;;;;3.35;3.05;;;;;;;7.27;72.85;94318.75;1792589;78;21135;-51
2021/05/08 05:41:46;;;;;;;4.20;3.30;;;;;;;7.35;72.54;94315.98;1809383;79;21163;-51
2021/05/08 05:44:15;;;;;;;3.95;3.47;;;;;;;7.39;72.12;94320.15;1822059;78;21075;-51
2021/05/08 05:46:44;;;;;;;4.10;3.80;;;;;;;7.39;72.21;94324.25;1809541;79;21115;-52
2021/05/08 05:49:12;;;;;;;4.30;3.90;;;;;;;7.51;72.36;94333.05;1822043;78;21383;-52
2021/05/08 05:51:40;;;;;;;4.72;4.42;;;;;;;7.63;71.86;94337.00;1809303;79;21119;-53
2021/05/08 05:54:09;;;;;;;5.12;4.22;;;;;;;7.74;71.62;94331.97;1821972;78;21103;-52
2021/05/08 05:56:37;;;;;;;3.98;3.67;;;;;;;7.83;71.63;94341.06;1809413;79;21151;-53
2021/05/08 05:59:05;;;;;;;3.85;3.55;;;;;;;7.83;68.40;94341.06;1821247;78;21468;-52
2021/05/08 06:01:33;;;;;;;4.30;3.90;;;;;;;7.79;66.65;94347.25;1809405;79;21356;-52
2021/05/08 06:04:02;;;;;;;5.72;4.22;;;;;;;7.73;66.11;94336.67;1821985;78;21083;-53
2021/05/08 06:06:32;;;;;;;6.53;5.25;;;;;;;7.69;65.51;94351.08;1821989;78;21154;-51
2021/05/08 06:09:01;;;;;;;7.03;4.83;;;;;;;7.62;64.91;94348.56;1820515;78;21187;-53
2021/05/08 06:11:29;;;;;;;8.10;6.35;;;;;;;7.58;65.62;94357.50;1796019;78;21138;-52
2021/05/08 06:13:57;;;;;;;6.03;5.33;;;;;;;7.56;64.44;94348.92;1810807;79;21363;-53
2021/05/08 06:16:25;;;;;;;7.78;6.80;;;;;;;7.55;64.86;94356.97;1796065;79;21106;-52
2021/05/08 06:18:53;;;;;;;5.67;5.08;;;;;;;7.53;63.95;94362.73;1810795;79;21073;-53
2021/05/08 06:21:21;;;;;;;4.95;4.45;;;;;;;7.45;61.95;94362.77;1796015;79;21082;-52
2021/05/08 06:23:49;;;;;;;9.83;5.83;;;;;;;7.40;61.58;94366.83;1810700;79;21144;-52
2021/05/08 06:26:17;;;;;;;9.20;7.10;;;;;;;7.39;61.44;94370.77;1796010;79;21420;-55
2021/05/08 06:28:45;;;;;;;5.90;5.15;;;;;;;7.37;62.19;94369.05;1810799;79;21492;-52
2021/05/08 06:31:13;;;;;;;5.97;5.40;;;;;;;7.40;62.43;94377.78;1796098;79;21067;-52
2021/05/08 06:33:41;;;;;;;6.45;5.85;;;;;;;7.48;63.33;94380.45;1810801;79;21060;-54
2021/05/08 06:36:09;;;;;;;6.42;5.50;;;;;;;7.64;62.23;94372.16;1796110;79;21101;-54
2021/05/08 06:38:37;;;;;;;5.05;4.42;;;;;;;7.85;61.41;94381.09;1810716;79;22190;-52
2021/05/08 06:41:05;;;;;;;5.60;4.75;;;;;;;8.02;60.55;94381.73;1796160;78;21106;-51
2021/05/08 06:43:33;;;;;;;32.45;5.37;;;;;;;8.16;60.51;94383.44;1810804;79;21057;-51
2021/05/08 06:46:02;;;;;;;4.97;4.42;;;;;;;8.32;60.74;94383.34;1796043;79;21053;-53
2021/05/08 06:48:31;;;;;;;6.08;4.10;;;;;;;8.41;59.51;94384.04;1810770;79;21127;-52
2021/05/08 06:50:59;;;;;;;4.45;4.05;;;;;;;8.50;58.59;94388.23;1796090;79;22100;-51
2021/05/08 06:53:27;;;;;;;5.50;4.17;;;;;;;8.57;58.77;94400.32;1810594;79;21855;-51
2021/05/08 06:55:55;;;;;;;11.20;6.12;;;;;;;8.60;58.42;94394.72;1795943;79;21098;-53
2021/05/08 06:58:23;;;;;;;9.68;5.60;;;;;;;8.73;58.94;94392.72;1810518;79;21508;-52
2021/05/08 07:00:51;;;;;;;8.15;6.10;;;;;;;8.87;57.78;94386.77;1796210;79;21122;-54
2021/05/08 07:03:27;;;;;;;3.83;3.52;;;;;;;8.87;57.53;94388.12;1810849;79;21337;-53
2021/05/08 07:05:55;;;;;;;3.80;3.50;;;;;;;8.87;57.78;94392.24;1795868;79;21748;-52
2021/05/08 07:08:23;;;;;;;5.12;2.95;;;;;;;8.90;56.46;94388.61;1810663;79;21533;-53
2021/05/08 07:10:53;;;;;;;5.60;3.85;;;;;;;8.95;56.39;94387.44;1806240;79;21068;-54
2021/05/08 07:13:21;;;;;;;4.55;3.47;;;;;;;9.05;57.38;94397.26;1821427;78;21182;-57
2021/05/08 07:15:56;;;;;;;5.42;3.37;;;;;;;9.11;58.38;94402.95;1806203;79;21375;-53
2021/05/08 07:18:25;;;;;;;3.33;3.10;;;;;;;9.17;57.41;94412.14;1822017;78;21229;-53
2021/05/08 07:20:53;;;;;;;8.80;4.35;;;;;;;9.22;55.93;94408.84;1821979;78;21071;-53
2021/05/08 07:23:21;;;;;;;4.05;3.58;;;;;;;9.22;55.69;94405.48;1821970;78;21504;-54
2021/05/08 07:25:49;;;;;;;6.47;4.42;;;;;;;9.20;55.30;94403.78;1822016;78;21571;-54
2021/05/08 07:28:21;;;;;;;8.50;4.17;;;;;;;9.18;54.35;94406.21;1821972;78;21372;-53
2021/05/08 07:30:51;;;;;;;3.55;3.25;;;;;;;9.21;56.84;94411.42;1806221;79;21124;-52
2021/05/08 07:33:19;;;;;;;7.08;4.47;;;;;;;9.29;56.08;94419.55;1822075;78;21165;-52
2021/05/08 07:35:48;;;;;;;4.87;4.05;;;;;;;9.29;55.12;94422.30;1806237;79;21124;-53
2021/05/08 07:38:16;;;;;;;3.98;3.58;;;;;;;9.28;54.81;94423.52;1822217;78;21075;-52
2021/05/08 07:40:49;;;;;;;4.33;3.67;;;;;;;9.31;55.75;94433.59;1806497;79;22279;-53
2021/05/08 07:43:17;;;;;;;3.80;3.50;;;;;;;9.45;55.82;94434.47;1822126;78;21082;-56
2021/05/08 07:45:45;;;;;;;3.42;3.12;;;;;;;9.67;55.88;94431.10;1806470;79;21482;-53
2021/05/08 07:48:14;;;;;;;6.00;3.87;;;;;;;9.94;56.22;94432.02;1822199;78;21071;-52
2021/05/08 07:50:42;;;;;;;9.45;3.50;;;;;;;10.07;54.41;94428.62;1822103;78;21044;-52
2021/05/08 07:53:10;;;;;;;8.80;3.87;;;;;;;10.07;53.15;94433.33;1806448;79;22167;-52
2021/05/08 07:55:38;;;;;;;5.45;4.12;;;;;;;10.06;53.95;94429.05;1821816;78;21132;-53
2021/05/08 07:58:07;;;;;;;4.10;3.70;;;;;;;10.05;53.20;94439.30;1806098;79;21194;-54
2021/05/08 08:00:35;;;;;;;6.08;4.58;;;;;;;10.09;52.97;94440.52;1822059;78;21072;-53
2021/05/08 08:03:05;;;;;;;3.10;2.80;;;;;;;10.12;52.77;94446.48;1806398;79;21481;-52
2021/05/08 08:05:35;;;;;;;6.53;2.87;;;;;;;10.11;52.39;94438.86;1817765;78;21144;-54
2021/05/08 08:08:04;;;;;;;2.72;2.50;;;;;;;10.14;53.66;94452.32;1806184;78;21153;-56
2021/05/08 08:10:32;;;;;;;3.70;3.05;;;;;;;10.21;52.10;94450.06;1821829;78;21524;-54
2021/05/08 08:13:02;;;;;;;4.80;3.42;;;;;;;10.32;51.79;94453.77;1806318;79;21057;-54
2021/05/08 08:15:31;;;;;;;2.62;2.42;;;;;;;10.32;50.29;94453.77;1822122;78;21100;-54
2021/05/08 08:17:59;;;;;;;6.20;4.92;;;;;;;10.16;50.71;94461.63;1822029;78;21463;-53
2021/05/08 08:20:28;;;;;;;5.95;4.33;;;;;;;10.06;50.71;94455.16;1821994;78;21111;-53
2021/05/08 08:22:56;;;;;;;3.50;3.20;;;;;;;10.08;50.82;94456.25;1822119;78;21267;-52
2021/05/08 08:25:25;;;;;;;5.72;2.83;;;;;;;10.20;50.21;94465.00;1822095;78;21055;-52
2021/05/08 08:27:53;;;;;;;2.80;2.52;;;;;;;10.32;50.92;94457.90;1822089;78;21071;-53
2021/05/08 08:30:22;;;;;;;4.95;3.02;;;;;;;10.52;48.74;94456.28;1806377;79;21524;-53
2021/05/08 08:32:50;;;;;;;6.80;3.17;;;;;;;10.73;50.95;94467.05;1822062;78;21111;-53
2021/05/08 08:35:18;;;;;;;21.97;15.88;;;;;;;10.96;48.70;94470.02;1821965;78;21543;-55
2021/05/08 08:37:46;;;;;;;18.17;11.03;;;;;;;11.05;49.04;94474.93;1806322;79;21186;-52
2021/05/08 08:40:16;;;;;;;5.40;3.08;;;;;;;11.08;48.06;94471.86;1822164;78;21481;-54
2021/05/08 08:42:46;;;;;;;4.50;3.08;;;;;;;11.14;47.04;94476.31;1822066;78;21337;-53
2021/05/08 08:45:14;;;;;;;2.92;2.67;;;;;;;11.19;47.87;94474.31;1806250;79;21092;-52
2021/05/08 08:47:43;;;;;;;2.80;2.60;;;;;;;11.31;48.00;94483.69;1821957;78;21072;-53
2021/05/08 08:50:13;;;;;;;3.22;2.58;;;;;;;11.43;46.96;94478.02;1822039;78;21122;-53
2021/05/08 08:52:42;;;;;;;2.27;2.17;;;;;;;11.55;45.68;94482.60;1822187;78;21059;-54
2021/05/08 08:55:12;;;;;;;2.87;2.67;;;;;;;11.63;46.57;94472.84;1822029;78;22457;-54
2021/05/08 08:57:42;;;;;;;6.10;2.22;;;;;;;11.75;47.59;94489.06;1821888;78;21122;-56
2021/05/08 09:00:15;;;;;;;3.08;2.20;;;;;;;11.82;45.27;94488.74;1805925;79;21123;-54
2021/05/08 09:02:46;;;;;;;2.70;2.50;;;;;;;11.82;43.96;94495.03;1822060;78;21141;-53
2021/05/08 09:05:16;;;;;;;2.35;2.15;;;;;;;11.81;46.07;94492.72;1821976;78;21115;-53
2021/05/08 09:07:47;;;;;;;2.50;2.30;;;;;;;11.95;46.80;94501.16;1806275;79;21133;-53
2021/05/08 09:10:28;;;;;;;9.38;3.30;;;;;;;12.09;45.16;94507.39;1823707;78;21117;-55
2021/05/08 09:13:00;;;;;;;3.05;2.77;;;;;;;12.05;45.85;94498.52;1825183;78;21262;-54
2021/05/08 09:15:42;;;;;;;3.25;2.40;;;;;;;11.88;45.50;94502.83;1811489;79;21611;-55
2021/05/08 09:18:35;;;;;;;6.85;2.90;;;;;;;11.84;44.25;94509.12;1825387;78;21147;-53
2021/05/08 09:21:08;;;;;;;3.00;2.72;;;;;;;11.98;44.90;94498.84;1803481;78;21388;-54
2021/05/08 09:23:37;;;;;;;3.75;3.17;;;;;;;12.31;42.33;94504.45;1812211;78;21079;-52
2021/05/08 09:26:10;;;;;;;15.83;8.13;;;;;;;12.36;42.74;94507.34;1825212;78;21075;-56
2021/05/08 09:28:53;;;;;;;12.13;5.97;;;;;;;12.27;43.47;94522.53;1812524;78;21143;-54
2021/05/08 09:31:20;;;;;;;7.58;4.92;;;;;;;12.23;44.09;94521.93;1825458;78;21606;-53
2021/05/08 09:33:52;;;;;;;7.28;4.40;;;;;;;12.20;43.96;94515.96;1825192;78;21217;-54
2021/05/08 09:36:20;;;;;;;3.60;2.30;;;;;;;12.13;43.23;94527.92;1812236;79;21115;-54
2021/05/08 09:38:48;;;;;;;5.80;3.42;;;;;;;11.93;41.30;94524.25;1825136;78;21099;-54
2021/05/08 09:41:19;;;;;;;7.67;3.72;;;;;;;11.77;41.05;94523.22;1812294;78;21568;-54
2021/05/08 09:43:48;;;;;;;4.17;3.05;;;;;;;11.78;39.18;94527.50;1825262;78;21131;-53
2021/05/08 09:46:28;;;;;;;4.80;4.15;;;;;;;11.89;39.57;94536.05;1825137;78;21229;-55
2021/05/08 09:49:11;;;;;;;9.58;3.08;;;;;;;12.00;39.37;94528.70;1825139;78;21095;-54
2021/05/08 09:51:39;;;;;;;4.75;2.22;;;;;;;12.02;39.42;94542.78;1825240;78;21132;-57
2021/05/08 09:54:19;;;;;;;2.58;2.35;;;;;;;12.07;37.44;94541.56;1825209;78;21163;-56
2021/05/08 09:56:49;;;;;;;4.78;3.25;;;;;;;12.05;37.34;94538.50;1812287;78;21147;-54
2021/05/08 09:59:34;;;;;;;9.90;3.83;;;;;;;12.15;39.11;94534.52;1824674;78;21187;-53
2021/05/08 10:02:10;;;;;;;5.35;3.75;;;;;;;12.33;40.18;94544.14;1824912;78;21063;-54
2021/05/08 10:04:49;;;;;;;6.15;3.02;;;;;;;12.57;41.86;94540.22;1824987;78;21547;-55
2021/05/08 10:07:24;;;;;;;11.68;3.50;;;;;;;12.79;41.15;94540.01;1825279;78;21103;-54
2021/05/08 10:09:59;;;;;;;4.90;2.98;;;;;;;12.93;40.67;94537.99;1810204;78;21044;-53
2021/05/08 10:12:28;;;;;;;6.45;2.77;;;;;;;13.19;42.90;94543.23;1822025;78;21260;-54
2021/05/08 10:14:58;;;;;;;7.50;2.42;;;;;;;13.44;35.29;94553.84;1806243;79;21202;-55
2021/05/08 10:17:28;;;;;;;6.60;3.10;;;;;;;13.46;38.29;94548.61;1821886;78;21461;-54
2021/05/08 10:20:06;;;;;;;;;;;;;;;13.64;38.94;94547.11;1808933;79;21135;-54
2021/05/08 10:22:44;;;;;;;6.72;4.15;;;;;;;13.85;37.88;94548.16;1822014;78;20228;-53
2021/05/08 10:25:13;;;;;;;4.67;3.25;;;;;;;14.24;39.33;94553.11;1822032;78;23457;-54
2021/05/08 10:27:41;;;;;;;7.28;3.98;;;;;;;14.55;36.25;94542.50;1821859;78;21567;-55
2021/05/08 10:30:14;;;;;;;4.00;2.70;;;;;;;14.78;37.79;94555.47;1806230;79;21135;-55
2021/05/08 10:32:44;;;;;;;3.00;2.42;;;;;;;14.97;36.90;94551.89;1806407;79;21052;-54
2021/05/08 10:35:13;;;;;;;6.30;2.70;;;;;;;15.24;34.90;94552.92;1822063;78;21084;-54
2021/05/08 10:38:22;;;;;;;10.65;3.10;;;;;;;15.31;33.34;94553.93;1822120;78;22162;-52
2021/05/08 10:40:57;;;;;;;6.40;3.50;;;;;;;15.33;33.19;94539.73;1806306;79;21579;-53
2021/05/08 10:43:52;;;;;;;5.95;3.42;;;;;;;15.32;34.13;94552.71;1822111;78;21067;-54
2021/05/08 10:46:23;;;;;;;5.42;2.20;;;;;;;15.53;35.26;94560.56;1822002;78;21143;-54
2021/05/08 10:49:10;;;;;;;5.08;2.20;;;;;;;15.88;33.34;94561.28;1806327;79;21623;-54
2021/05/08 10:52:02;;;;;;;7.58;2.62;;;;;;;16.09;32.76;94560.03;1821893;78;21143;-54
2021/05/08 10:54:44;;;;;;;3.00;2.20;;;;;;;16.37;32.62;94572.25;1806305;79;21560;-54
2021/05/08 10:57:26;;;;;;;2.62;1.90;;;;;;;16.59;31.41;94565.54;1822040;78;21607;-54
2021/05/08 11:00:10;;;;;;;4.37;2.65;;;;;;;16.91;32.50;94569.89;1806157;79;21114;-55
2021/05/08 11:02:45;;;;;;;;;;;;;;;17.11;30.26;94578.16;1824757;78;21599;-57
2021/05/08 11:05:31;;;;;;;1.65;1.55;;;;;;;17.19;30.41;94580.60;1821874;78;21200;-55
2021/05/08 11:07:59;;;;;;;5.78;3.62;;;;;;;17.07;30.07;94569.28;1806187;79;21130;-54
2021/05/08 11:10:37;;;;;;;2.58;1.80;;;;;;;17.23;30.66;94563.06;1822693;78;21224;-54
2021/05/08 11:13:08;;;;;;;2.35;1.50;;;;;;;17.68;29.86;94563.54;1812274;78;21056;-54
2021/05/08 11:15:56;;;;;;;2.08;1.50;;;;;;;17.95;28.46;94565.70;1824952;78;21118;-54
2021/05/08 11:18:35;;;;;;;3.92;2.33;;;;;;;18.01;29.96;94573.47;1789830;78;21226;-56
2021/05/08 11:21:16;;;;;;;2.83;1.70;;;;;;;18.21;28.88;94568.48;1825114;78;21058;-54
2021/05/08 11:23:47;;;;;;;3.90;1.32;;;;;;;18.35;28.50;94572.51;1825252;78;21479;-55
2021/05/08 11:26:29;;;;;;;4.28;1.70;;;;;;;18.53;27.72;94565.09;1812105;78;21063;-54
2021/05/08 11:29:21;;;;;;;4.92;1.85;;;;;;;18.64;28.02;94560.92;1825324;78;26636;-55
2021/05/08 11:31:55;;;;;;;8.38;1.95;;;;;;;18.83;27.98;94575.16;1825136;78;21118;-56
2021/05/08 11:34:33;;;;;;;8.38;1.70;;;;;;;19.00;28.52;94571.77;1812122;79;21465;-56
2021/05/08 11:37:12;;;;;;;3.42;1.45;;;;;;;19.18;28.05;94581.81;1825263;78;21087;-57
2021/05/08 11:39:46;;;;;;;3.22;2.58;;;;;;;19.23;29.71;94572.67;1825204;78;21146;-55
2021/05/08 11:42:23;;;;;;;1.92;1.17;;;;;;;19.45;27.58;94581.69;1825211;78;21056;-55
2021/05/08 11:44:58;;;;;;;2.05;1.37;;;;;;;19.49;26.37;94577.38;1825202;78;22111;-55
2021/05/08 11:47:30;;;;;;;7.85;1.60;;;;;;;19.39;27.26;94584.47;1781597;78;21096;-54
2021/05/08 11:50:06;;;;;;;2.90;1.45;;;;;;;19.62;28.58;94577.62;1792162;80;21421;-56
2021/05/08 11:52:43;;;;;;;2.08;1.87;;;;;;;20.01;27.16;94581.72;1791819;80;21093;-55
2021/05/08 11:55:17;;;;;;;2.10;1.12;;;;;;;20.19;26.38;94593.88;1792690;80;21568;-54